sensor_id;sensor_type;location;lat;lon;timestamp;P1;durP1;ratioP1;P2;durP2;ratioP2
31818;SDS011;18384;48.860;9.188;2022-08-27T00:00:30;32.10;;;20.37;;
31818;SDS011;18384;48.860;9.188;2022-08-27T00:02:56;34.50;;;21.17;;
31818;SDS011;18384;48.860;9.188;2022-08-27T00:05:23;31.80;;;22.27;;
31818;SDS011;18384;48.860;9.188;2022-08-27T00:07:49;31.25;;;21.33;;
31818;SDS011;18384;48.860;9.188;2022-08-27T00:10:18;36.50;;;21.80;;
31818;SDS011;18384;48.860;9.188;2022-08-27T00:12:47;35.95;;;20.77;;
31818;SDS011;18384;48.860;9.188;2022-08-27T00:17:40;33.88;;;20.95;;
31818;SDS011;18384;48.860;9.188;2022-08-27T00:20:10;31.37;;;21.45;;
31818;SDS011;18384;48.860;9.188;2022-08-27T00:22:39;28.48;;;21.27;;
31818;SDS011;18384;48.860;9.188;2022-08-27T00:25:05;32.55;;;21.75;;
31818;SDS011;18384;48.860;9.188;2022-08-27T00:27:32;27.02;;;19.70;;
31818;SDS011;18384;48.860;9.188;2022-08-27T00:29:58;31.02;;;21.23;;
31818;SDS011;18384;48.860;9.188;2022-08-27T00:32:24;27.75;;;20.52;;
31818;SDS011;18384;48.860;9.188;2022-08-27T00:34:51;26.35;;;19.70;;
31818;SDS011;18384;48.860;9.188;2022-08-27T00:37:17;25.15;;;18.95;;
31818;SDS011;18384;48.860;9.188;2022-08-27T00:39:44;32.33;;;20.10;;
31818;SDS011;18384;48.860;9.188;2022-08-27T00:44:36;31.48;;;20.80;;
31818;SDS011;18384;48.860;9.188;2022-08-27T00:47:04;28.90;;;20.83;;
31818;SDS011;18384;48.860;9.188;2022-08-27T00:49:41;32.33;;;21.33;;
31818;SDS011;18384;48.860;9.188;2022-08-27T00:52:32;29.50;;;21.93;;
31818;SDS011;18384;48.860;9.188;2022-08-27T00:55:11;34.38;;;21.67;;
31818;SDS011;18384;48.860;9.188;2022-08-27T00:57:44;36.00;;;21.65;;
31818;SDS011;18384;48.860;9.188;2022-08-27T01:00:18;35.67;;;23.40;;
31818;SDS011;18384;48.860;9.188;2022-08-27T01:02:45;33.55;;;23.35;;
31818;SDS011;18384;48.860;9.188;2022-08-27T01:05:12;29.95;;;22.20;;
31818;SDS011;18384;48.860;9.188;2022-08-27T01:07:47;36.15;;;23.00;;
31818;SDS011;18384;48.860;9.188;2022-08-27T01:10:20;35.70;;;23.70;;
31818;SDS011;18384;48.860;9.188;2022-08-27T01:12:49;34.60;;;24.48;;
31818;SDS011;18384;48.860;9.188;2022-08-27T01:15:18;36.90;;;25.73;;
31818;SDS011;18384;48.860;9.188;2022-08-27T01:17:47;38.92;;;26.30;;
31818;SDS011;18384;48.860;9.188;2022-08-27T01:20:17;37.45;;;24.17;;
31818;SDS011;18384;48.860;9.188;2022-08-27T01:32:16;41.05;;;25.88;;
31818;SDS011;18384;48.860;9.188;2022-08-27T01:34:52;40.80;;;26.40;;
31818;SDS011;18384;48.860;9.188;2022-08-27T01:37:19;41.80;;;26.85;;
31818;SDS011;18384;48.860;9.188;2022-08-27T01:39:47;39.60;;;27.70;;
31818;SDS011;18384;48.860;9.188;2022-08-27T01:42:21;38.92;;;26.52;;
31818;SDS011;18384;48.860;9.188;2022-08-27T01:45:18;43.72;;;28.08;;
31818;SDS011;18384;48.860;9.188;2022-08-27T01:47:54;39.17;;;27.83;;
31818;SDS011;18384;48.860;9.188;2022-08-27T01:50:22;36.40;;;26.73;;
31818;SDS011;18384;48.860;9.188;2022-08-27T01:52:53;36.67;;;25.95;;
31818;SDS011;18384;48.860;9.188;2022-08-27T01:55:22;44.35;;;26.15;;
31818;SDS011;18384;48.860;9.188;2022-08-27T01:57:51;36.60;;;24.52;;
31818;SDS011;18384;48.860;9.188;2022-08-27T02:00:20;36.67;;;25.08;;
31818;SDS011;18384;48.860;9.188;2022-08-27T02:02:54;36.30;;;23.52;;
31818;SDS011;18384;48.860;9.188;2022-08-27T02:05:24;35.58;;;24.42;;
31818;SDS011;18384;48.860;9.188;2022-08-27T02:07:52;37.97;;;24.27;;
31818;SDS011;18384;48.860;9.188;2022-08-27T02:10:21;34.60;;;23.05;;
31818;SDS011;18384;48.860;9.188;2022-08-27T02:12:51;33.33;;;23.02;;
31818;SDS011;18384;48.860;9.188;2022-08-27T02:15:18;33.13;;;23.58;;
31818;SDS011;18384;48.860;9.188;2022-08-27T02:17:45;35.13;;;23.30;;
31818;SDS011;18384;48.860;9.188;2022-08-27T02:20:12;36.13;;;25.15;;
31818;SDS011;18384;48.860;9.188;2022-08-27T02:22:40;39.10;;;24.30;;
31818;SDS011;18384;48.860;9.188;2022-08-27T02:25:07;40.70;;;24.85;;
31818;SDS011;18384;48.860;9.188;2022-08-27T02:27:38;35.80;;;23.38;;
31818;SDS011;18384;48.860;9.188;2022-08-27T02:30:06;35.08;;;23.25;;
31818;SDS011;18384;48.860;9.188;2022-08-27T02:32:35;36.80;;;24.33;;
31818;SDS011;18384;48.860;9.188;2022-08-27T02:35:02;35.65;;;25.17;;
31818;SDS011;18384;48.860;9.188;2022-08-27T02:37:30;34.97;;;24.80;;
31818;SDS011;18384;48.860;9.188;2022-08-27T02:39:57;37.70;;;24.05;;
31818;SDS011;18384;48.860;9.188;2022-08-27T02:42:23;42.08;;;25.40;;
31818;SDS011;18384;48.860;9.188;2022-08-27T02:47:15;36.90;;;24.25;;
31818;SDS011;18384;48.860;9.188;2022-08-27T02:49:41;34.53;;;24.95;;
31818;SDS011;18384;48.860;9.188;2022-08-27T02:52:08;41.40;;;25.35;;
31818;SDS011;18384;48.860;9.188;2022-08-27T02:54:35;34.38;;;23.40;;
31818;SDS011;18384;48.860;9.188;2022-08-27T02:57:01;36.60;;;24.60;;
31818;SDS011;18384;48.860;9.188;2022-08-27T03:01:53;30.62;;;22.73;;
31818;SDS011;18384;48.860;9.188;2022-08-27T03:04:19;36.45;;;23.35;;
31818;SDS011;18384;48.860;9.188;2022-08-27T03:06:47;32.42;;;21.90;;
31818;SDS011;18384;48.860;9.188;2022-08-27T03:09:13;33.13;;;21.95;;
31818;SDS011;18384;48.860;9.188;2022-08-27T03:11:40;31.23;;;21.70;;
31818;SDS011;18384;48.860;9.188;2022-08-27T03:14:07;34.80;;;20.73;;
31818;SDS011;18384;48.860;9.188;2022-08-27T03:19:00;27.80;;;18.50;;
31818;SDS011;18384;48.860;9.188;2022-08-27T03:21:27;26.20;;;18.12;;
31818;SDS011;18384;48.860;9.188;2022-08-27T03:26:19;26.17;;;17.95;;
31818;SDS011;18384;48.860;9.188;2022-08-27T03:28:45;25.62;;;17.75;;
31818;SDS011;18384;48.860;9.188;2022-08-27T03:31:13;25.85;;;17.23;;
31818;SDS011;18384;48.860;9.188;2022-08-27T03:33:51;27.10;;;18.45;;
31818;SDS011;18384;48.860;9.188;2022-08-27T03:36:19;25.70;;;16.98;;
31818;SDS011;18384;48.860;9.188;2022-08-27T03:38:46;22.62;;;17.40;;
31818;SDS011;18384;48.860;9.188;2022-08-27T03:41:12;23.30;;;16.60;;
31818;SDS011;18384;48.860;9.188;2022-08-27T03:43:40;25.00;;;17.05;;
31818;SDS011;18384;48.860;9.188;2022-08-27T03:46:07;22.52;;;16.70;;
31818;SDS011;18384;48.860;9.188;2022-08-27T03:48:33;25.23;;;17.30;;
31818;SDS011;18384;48.860;9.188;2022-08-27T03:51:07;25.42;;;17.80;;
31818;SDS011;18384;48.860;9.188;2022-08-27T03:53:37;31.08;;;20.73;;
31818;SDS011;18384;48.860;9.188;2022-08-27T03:56:08;27.95;;;19.95;;
31818;SDS011;18384;48.860;9.188;2022-08-27T03:58:35;30.27;;;21.85;;
31818;SDS011;18384;48.860;9.188;2022-08-27T04:01:02;36.60;;;22.67;;
31818;SDS011;18384;48.860;9.188;2022-08-27T04:03:30;36.15;;;23.40;;
31818;SDS011;18384;48.860;9.188;2022-08-27T04:05:58;39.30;;;23.52;;
31818;SDS011;18384;48.860;9.188;2022-08-27T04:08:25;35.30;;;23.62;;
31818;SDS011;18384;48.860;9.188;2022-08-27T04:10:52;38.13;;;24.80;;
31818;SDS011;18384;48.860;9.188;2022-08-27T04:13:19;35.17;;;24.27;;
31818;SDS011;18384;48.860;9.188;2022-08-27T04:15:48;38.08;;;27.20;;
31818;SDS011;18384;48.860;9.188;2022-08-27T04:18:17;42.72;;;26.48;;
31818;SDS011;18384;48.860;9.188;2022-08-27T04:20:44;41.17;;;26.62;;
31818;SDS011;18384;48.860;9.188;2022-08-27T04:23:12;48.03;;;28.92;;
31818;SDS011;18384;48.860;9.188;2022-08-27T04:25:39;45.22;;;28.80;;
31818;SDS011;18384;48.860;9.188;2022-08-27T04:28:07;43.55;;;28.00;;
31818;SDS011;18384;48.860;9.188;2022-08-27T04:30:39;47.90;;;29.95;;
31818;SDS011;18384;48.860;9.188;2022-08-27T04:33:08;48.97;;;30.60;;
31818;SDS011;18384;48.860;9.188;2022-08-27T04:35:36;48.60;;;30.20;;
31818;SDS011;18384;48.860;9.188;2022-08-27T04:38:02;42.05;;;28.95;;
31818;SDS011;18384;48.860;9.188;2022-08-27T04:40:29;40.47;;;28.30;;
31818;SDS011;18384;48.860;9.188;2022-08-27T04:43:14;48.92;;;30.35;;
31818;SDS011;18384;48.860;9.188;2022-08-27T04:45:44;50.17;;;31.12;;
31818;SDS011;18384;48.860;9.188;2022-08-27T04:48:12;45.67;;;29.27;;
31818;SDS011;18384;48.860;9.188;2022-08-27T04:50:41;44.88;;;29.73;;
31818;SDS011;18384;48.860;9.188;2022-08-27T04:53:09;45.30;;;29.60;;
31818;SDS011;18384;48.860;9.188;2022-08-27T04:55:41;43.72;;;28.48;;
31818;SDS011;18384;48.860;9.188;2022-08-27T04:58:12;41.10;;;28.75;;
31818;SDS011;18384;48.860;9.188;2022-08-27T05:00:47;39.20;;;27.40;;
31818;SDS011;18384;48.860;9.188;2022-08-27T05:03:19;45.10;;;28.08;;
31818;SDS011;18384;48.860;9.188;2022-08-27T05:05:48;51.15;;;28.40;;
31818;SDS011;18384;48.860;9.188;2022-08-27T05:08:17;42.33;;;28.80;;
31818;SDS011;18384;48.860;9.188;2022-08-27T05:10:48;44.67;;;28.35;;
31818;SDS011;18384;48.860;9.188;2022-08-27T05:13:15;41.97;;;29.77;;
31818;SDS011;18384;48.860;9.188;2022-08-27T05:15:43;45.00;;;29.58;;
31818;SDS011;18384;48.860;9.188;2022-08-27T05:18:10;43.50;;;27.20;;
31818;SDS011;18384;48.860;9.188;2022-08-27T05:20:41;43.05;;;28.83;;
31818;SDS011;18384;48.860;9.188;2022-08-27T05:23:11;43.70;;;28.12;;
31818;SDS011;18384;48.860;9.188;2022-08-27T05:25:41;45.85;;;28.00;;
31818;SDS011;18384;48.860;9.188;2022-08-27T05:28:10;41.15;;;28.17;;
31818;SDS011;18384;48.860;9.188;2022-08-27T05:30:39;44.67;;;26.80;;
31818;SDS011;18384;48.860;9.188;2022-08-27T05:33:11;48.58;;;27.62;;
31818;SDS011;18384;48.860;9.188;2022-08-27T05:35:40;39.83;;;27.52;;
31818;SDS011;18384;48.860;9.188;2022-08-27T05:38:07;39.67;;;27.45;;
31818;SDS011;18384;48.860;9.188;2022-08-27T05:40:34;47.33;;;26.85;;
31818;SDS011;18384;48.860;9.188;2022-08-27T05:43:01;43.78;;;26.80;;
31818;SDS011;18384;48.860;9.188;2022-08-27T05:45:28;46.37;;;29.12;;
31818;SDS011;18384;48.860;9.188;2022-08-27T05:47:54;41.60;;;29.40;;
31818;SDS011;18384;48.860;9.188;2022-08-27T05:50:20;45.03;;;31.10;;
31818;SDS011;18384;48.860;9.188;2022-08-27T05:52:46;43.13;;;30.80;;
31818;SDS011;18384;48.860;9.188;2022-08-27T05:55:12;46.17;;;30.15;;
31818;SDS011;18384;48.860;9.188;2022-08-27T05:57:38;44.80;;;28.92;;
31818;SDS011;18384;48.860;9.188;2022-08-27T06:00:04;49.85;;;30.35;;
31818;SDS011;18384;48.860;9.188;2022-08-27T06:02:50;48.28;;;30.27;;
31818;SDS011;18384;48.860;9.188;2022-08-27T06:05:16;49.85;;;32.80;;
31818;SDS011;18384;48.860;9.188;2022-08-27T06:10:09;56.53;;;31.12;;
31818;SDS011;18384;48.860;9.188;2022-08-27T06:12:35;50.47;;;30.92;;
31818;SDS011;18384;48.860;9.188;2022-08-27T06:17:28;45.03;;;30.35;;
31818;SDS011;18384;48.860;9.188;2022-08-27T06:19:54;48.85;;;30.08;;
31818;SDS011;18384;48.860;9.188;2022-08-27T06:22:21;50.38;;;31.05;;
31818;SDS011;18384;48.860;9.188;2022-08-27T06:24:48;41.53;;;30.02;;
31818;SDS011;18384;48.860;9.188;2022-08-27T06:29:43;49.03;;;30.23;;
31818;SDS011;18384;48.860;9.188;2022-08-27T06:32:10;41.88;;;30.67;;
31818;SDS011;18384;48.860;9.188;2022-08-27T06:34:37;46.58;;;29.10;;
31818;SDS011;18384;48.860;9.188;2022-08-27T06:37:03;42.53;;;27.42;;
31818;SDS011;18384;48.860;9.188;2022-08-27T06:39:31;39.70;;;27.37;;
31818;SDS011;18384;48.860;9.188;2022-08-27T06:41:57;47.50;;;27.87;;
31818;SDS011;18384;48.860;9.188;2022-08-27T06:44:23;40.88;;;27.90;;
31818;SDS011;18384;48.860;9.188;2022-08-27T06:46:50;40.92;;;26.70;;
31818;SDS011;18384;48.860;9.188;2022-08-27T06:49:16;45.50;;;26.92;;
31818;SDS011;18384;48.860;9.188;2022-08-27T06:51:43;40.67;;;27.87;;
31818;SDS011;18384;48.860;9.188;2022-08-27T06:54:11;41.47;;;26.90;;
31818;SDS011;18384;48.860;9.188;2022-08-27T06:56:39;47.05;;;26.73;;
31818;SDS011;18384;48.860;9.188;2022-08-27T06:59:08;42.10;;;27.70;;
31818;SDS011;18384;48.860;9.188;2022-08-27T07:01:40;42.10;;;26.52;;
31818;SDS011;18384;48.860;9.188;2022-08-27T07:04:10;38.65;;;27.08;;
31818;SDS011;18384;48.860;9.188;2022-08-27T07:06:41;38.83;;;26.45;;
31818;SDS011;18384;48.860;9.188;2022-08-27T07:09:08;39.17;;;27.10;;
31818;SDS011;18384;48.860;9.188;2022-08-27T07:11:35;38.67;;;26.83;;
31818;SDS011;18384;48.860;9.188;2022-08-27T07:14:02;39.60;;;26.15;;
31818;SDS011;18384;48.860;9.188;2022-08-27T07:16:28;41.03;;;27.13;;
31818;SDS011;18384;48.860;9.188;2022-08-27T07:18:55;43.83;;;27.75;;
31818;SDS011;18384;48.860;9.188;2022-08-27T07:21:24;41.35;;;26.17;;
31818;SDS011;18384;48.860;9.188;2022-08-27T07:23:51;45.17;;;26.27;;
31818;SDS011;18384;48.860;9.188;2022-08-27T07:26:21;39.55;;;26.73;;
31818;SDS011;18384;48.860;9.188;2022-08-27T07:28:48;41.58;;;26.70;;
31818;SDS011;18384;48.860;9.188;2022-08-27T07:31:16;42.62;;;28.58;;
31818;SDS011;18384;48.860;9.188;2022-08-27T07:33:45;44.03;;;27.40;;
31818;SDS011;18384;48.860;9.188;2022-08-27T07:38:38;35.83;;;27.25;;
31818;SDS011;18384;48.860;9.188;2022-08-27T07:41:08;39.95;;;26.92;;
31818;SDS011;18384;48.860;9.188;2022-08-27T07:43:36;44.28;;;27.77;;
31818;SDS011;18384;48.860;9.188;2022-08-27T07:46:21;41.80;;;26.62;;
31818;SDS011;18384;48.860;9.188;2022-08-27T07:48:48;38.95;;;26.52;;
31818;SDS011;18384;48.860;9.188;2022-08-27T07:51:16;37.13;;;26.00;;
31818;SDS011;18384;48.860;9.188;2022-08-27T07:53:45;44.35;;;26.70;;
31818;SDS011;18384;48.860;9.188;2022-08-27T07:56:12;42.30;;;26.77;;
31818;SDS011;18384;48.860;9.188;2022-08-27T07:58:39;44.70;;;27.55;;
31818;SDS011;18384;48.860;9.188;2022-08-27T08:01:07;39.22;;;26.98;;
31818;SDS011;18384;48.860;9.188;2022-08-27T08:03:34;44.47;;;26.83;;
31818;SDS011;18384;48.860;9.188;2022-08-27T08:06:03;40.80;;;27.55;;
31818;SDS011;18384;48.860;9.188;2022-08-27T08:08:34;37.85;;;26.33;;
31818;SDS011;18384;48.860;9.188;2022-08-27T08:11:01;42.50;;;26.62;;
31818;SDS011;18384;48.860;9.188;2022-08-27T08:13:28;47.53;;;26.92;;
31818;SDS011;18384;48.860;9.188;2022-08-27T08:15:55;38.70;;;27.20;;
31818;SDS011;18384;48.860;9.188;2022-08-27T08:18:23;47.75;;;28.05;;
31818;SDS011;18384;48.860;9.188;2022-08-27T08:20:50;38.83;;;27.23;;
31818;SDS011;18384;48.860;9.188;2022-08-27T08:25:43;42.40;;;27.08;;
31818;SDS011;18384;48.860;9.188;2022-08-27T08:28:09;47.40;;;27.37;;
31818;SDS011;18384;48.860;9.188;2022-08-27T08:30:35;51.85;;;27.85;;
31818;SDS011;18384;48.860;9.188;2022-08-27T08:33:02;43.20;;;28.40;;
31818;SDS011;18384;48.860;9.188;2022-08-27T08:37:54;52.50;;;29.83;;
31818;SDS011;18384;48.860;9.188;2022-08-27T08:40:27;45.22;;;30.33;;
31818;SDS011;18384;48.860;9.188;2022-08-27T08:42:59;39.33;;;25.77;;
31818;SDS011;18384;48.860;9.188;2022-08-27T08:45:29;32.80;;;21.60;;
31818;SDS011;18384;48.860;9.188;2022-08-27T08:48:02;28.50;;;18.62;;
31818;SDS011;18384;48.860;9.188;2022-08-27T08:54:43;17.08;;;11.43;;
31818;SDS011;18384;48.860;9.188;2022-08-27T08:57:13;14.43;;;10.30;;
31818;SDS011;18384;48.860;9.188;2022-08-27T09:00:00;18.45;;;11.15;;
31818;SDS011;18384;48.860;9.188;2022-08-27T09:02:39;21.25;;;10.88;;
31818;SDS011;18384;48.860;9.188;2022-08-27T09:05:13;16.23;;;11.93;;
31818;SDS011;18384;48.860;9.188;2022-08-27T09:10:16;18.85;;;13.32;;
31818;SDS011;18384;48.860;9.188;2022-08-27T09:13:20;20.15;;;14.38;;
31818;SDS011;18384;48.860;9.188;2022-08-27T09:15:56;20.58;;;14.38;;
31818;SDS011;18384;48.860;9.188;2022-08-27T09:18:26;20.95;;;13.98;;
31818;SDS011;18384;48.860;9.188;2022-08-27T09:21:16;20.05;;;15.43;;
31818;SDS011;18384;48.860;9.188;2022-08-27T09:24:25;22.05;;;14.70;;
31818;SDS011;18384;48.860;9.188;2022-08-27T09:27:16;21.52;;;15.80;;
31818;SDS011;18384;48.860;9.188;2022-08-27T09:29:48;19.95;;;15.88;;
31818;SDS011;18384;48.860;9.188;2022-08-27T09:32:25;23.02;;;16.02;;
31818;SDS011;18384;48.860;9.188;2022-08-27T09:34:57;23.27;;;17.35;;
31818;SDS011;18384;48.860;9.188;2022-08-27T09:37:46;24.87;;;17.23;;
31818;SDS011;18384;48.860;9.188;2022-08-27T09:43:23;26.52;;;17.65;;
31818;SDS011;18384;48.860;9.188;2022-08-27T09:45:54;22.80;;;16.85;;
31818;SDS011;18384;48.860;9.188;2022-08-27T09:48:25;25.77;;;18.33;;
31818;SDS011;18384;48.860;9.188;2022-08-27T09:51:10;26.87;;;17.85;;
31818;SDS011;18384;48.860;9.188;2022-08-27T09:53:47;24.95;;;17.98;;
31818;SDS011;18384;48.860;9.188;2022-08-27T09:56:37;26.52;;;17.55;;
31818;SDS011;18384;48.860;9.188;2022-08-27T09:59:22;24.65;;;18.52;;
31818;SDS011;18384;48.860;9.188;2022-08-27T10:02:03;30.92;;;19.23;;
31818;SDS011;18384;48.860;9.188;2022-08-27T10:04:50;27.23;;;19.25;;
31818;SDS011;18384;48.860;9.188;2022-08-27T10:07:29;29.98;;;19.15;;
31818;SDS011;18384;48.860;9.188;2022-08-27T10:10:22;26.98;;;19.50;;
31818;SDS011;18384;48.860;9.188;2022-08-27T10:15:33;23.85;;;17.85;;
31818;SDS011;18384;48.860;9.188;2022-08-27T10:32:42;22.60;;;16.70;;
31818;SDS011;18384;48.860;9.188;2022-08-27T10:36:48;23.25;;;17.55;;
31818;SDS011;18384;48.860;9.188;2022-08-27T10:42:07;25.92;;;18.50;;
31818;SDS011;18384;48.860;9.188;2022-08-27T10:44:53;28.73;;;18.77;;
31818;SDS011;18384;48.860;9.188;2022-08-27T10:49:20;29.40;;;18.73;;
31818;SDS011;18384;48.860;9.188;2022-08-27T10:57:15;30.20;;;19.02;;
31818;SDS011;18384;48.860;9.188;2022-08-27T11:00:06;29.65;;;20.25;;
31818;SDS011;18384;48.860;9.188;2022-08-27T11:02:42;28.30;;;20.05;;
31818;SDS011;18384;48.860;9.188;2022-08-27T11:05:31;33.38;;;20.30;;
31818;SDS011;18384;48.860;9.188;2022-08-27T11:08:15;31.65;;;19.73;;
31818;SDS011;18384;48.860;9.188;2022-08-27T11:11:06;27.92;;;21.27;;
31818;SDS011;18384;48.860;9.188;2022-08-27T11:13:51;32.40;;;19.80;;
31818;SDS011;18384;48.860;9.188;2022-08-27T11:16:22;30.33;;;19.77;;
31818;SDS011;18384;48.860;9.188;2022-08-27T11:18:56;29.33;;;21.42;;
31818;SDS011;18384;48.860;9.188;2022-08-27T11:21:58;31.45;;;21.62;;
31818;SDS011;18384;48.860;9.188;2022-08-27T11:25:12;33.40;;;22.00;;
31818;SDS011;18384;48.860;9.188;2022-08-27T11:28:08;35.67;;;22.98;;
31818;SDS011;18384;48.860;9.188;2022-08-27T11:30:42;30.75;;;22.33;;
31818;SDS011;18384;48.860;9.188;2022-08-27T11:34:44;33.92;;;23.95;;
31818;SDS011;18384;48.860;9.188;2022-08-27T11:37:41;34.20;;;22.90;;
31818;SDS011;18384;48.860;9.188;2022-08-27T11:41:04;37.00;;;23.23;;
31818;SDS011;18384;48.860;9.188;2022-08-27T11:44:15;40.42;;;23.70;;
31818;SDS011;18384;48.860;9.188;2022-08-27T11:46:44;38.17;;;24.85;;
31818;SDS011;18384;48.860;9.188;2022-08-27T11:49:23;32.92;;;23.45;;
31818;SDS011;18384;48.860;9.188;2022-08-27T11:52:05;32.53;;;22.05;;
31818;SDS011;18384;48.860;9.188;2022-08-27T11:54:42;33.28;;;22.70;;
31818;SDS011;18384;48.860;9.188;2022-08-27T11:57:15;35.28;;;22.77;;
31818;SDS011;18384;48.860;9.188;2022-08-27T11:59:56;31.73;;;20.88;;
31818;SDS011;18384;48.860;9.188;2022-08-27T12:02:28;33.97;;;22.37;;
31818;SDS011;18384;48.860;9.188;2022-08-27T12:09:12;33.70;;;23.25;;
31818;SDS011;18384;48.860;9.188;2022-08-27T12:11:46;32.58;;;22.83;;
31818;SDS011;18384;48.860;9.188;2022-08-27T12:14:51;32.30;;;22.17;;
31818;SDS011;18384;48.860;9.188;2022-08-27T12:24:03;32.53;;;23.27;;
31818;SDS011;18384;48.860;9.188;2022-08-27T12:27:16;34.33;;;22.05;;
31818;SDS011;18384;48.860;9.188;2022-08-27T12:30:06;33.10;;;21.27;;
31818;SDS011;18384;48.860;9.188;2022-08-27T12:33:11;30.27;;;20.95;;
31818;SDS011;18384;48.860;9.188;2022-08-27T12:39:16;34.17;;;20.73;;
31818;SDS011;18384;48.860;9.188;2022-08-27T12:41:47;31.30;;;22.58;;
31818;SDS011;18384;48.860;9.188;2022-08-27T12:44:21;33.67;;;20.83;;
31818;SDS011;18384;48.860;9.188;2022-08-27T12:47:07;35.72;;;22.50;;
31818;SDS011;18384;48.860;9.188;2022-08-27T12:49:56;31.17;;;21.90;;
31818;SDS011;18384;48.860;9.188;2022-08-27T12:56:47;35.35;;;21.77;;
31818;SDS011;18384;48.860;9.188;2022-08-27T13:07:55;37.30;;;23.02;;
31818;SDS011;18384;48.860;9.188;2022-08-27T13:10:28;37.40;;;23.52;;
31818;SDS011;18384;48.860;9.188;2022-08-27T13:13:03;34.78;;;23.15;;
31818;SDS011;18384;48.860;9.188;2022-08-27T13:15:34;41.00;;;24.75;;
31818;SDS011;18384;48.860;9.188;2022-08-27T13:18:03;34.47;;;22.30;;
31818;SDS011;18384;48.860;9.188;2022-08-27T13:20:33;30.77;;;23.67;;
31818;SDS011;18384;48.860;9.188;2022-08-27T13:23:03;44.53;;;22.52;;
31818;SDS011;18384;48.860;9.188;2022-08-27T13:25:34;35.13;;;23.10;;
31818;SDS011;18384;48.860;9.188;2022-08-27T13:28:10;38.33;;;25.60;;
31818;SDS011;18384;48.860;9.188;2022-08-27T13:30:41;35.25;;;22.62;;
31818;SDS011;18384;48.860;9.188;2022-08-27T13:33:15;33.15;;;22.58;;
31818;SDS011;18384;48.860;9.188;2022-08-27T13:35:49;34.30;;;23.33;;
31818;SDS011;18384;48.860;9.188;2022-08-27T13:38:16;37.03;;;23.73;;
31818;SDS011;18384;48.860;9.188;2022-08-27T13:41:00;34.28;;;24.25;;
31818;SDS011;18384;48.860;9.188;2022-08-27T13:43:39;41.10;;;26.12;;
31818;SDS011;18384;48.860;9.188;2022-08-27T13:46:11;35.47;;;24.98;;
31818;SDS011;18384;48.860;9.188;2022-08-27T13:48:46;36.47;;;24.98;;
31818;SDS011;18384;48.860;9.188;2022-08-27T13:51:17;34.50;;;24.25;;
31818;SDS011;18384;48.860;9.188;2022-08-27T13:54:00;38.58;;;25.88;;
31818;SDS011;18384;48.860;9.188;2022-08-27T13:59:33;33.15;;;22.25;;
31818;SDS011;18384;48.860;9.188;2022-08-27T14:05:11;35.85;;;23.15;;
31818;SDS011;18384;48.860;9.188;2022-08-27T14:08:01;34.72;;;22.80;;
31818;SDS011;18384;48.860;9.188;2022-08-27T14:11:04;33.00;;;23.50;;
31818;SDS011;18384;48.860;9.188;2022-08-27T14:13:37;29.52;;;19.23;;
31818;SDS011;18384;48.860;9.188;2022-08-27T14:16:14;34.67;;;22.08;;
31818;SDS011;18384;48.860;9.188;2022-08-27T14:19:21;32.28;;;19.62;;
31818;SDS011;18384;48.860;9.188;2022-08-27T14:21:54;45.72;;;20.58;;
31818;SDS011;18384;48.860;9.188;2022-08-27T14:24:22;33.85;;;19.50;;
31818;SDS011;18384;48.860;9.188;2022-08-27T14:26:52;29.40;;;19.33;;
31818;SDS011;18384;48.860;9.188;2022-08-27T14:29:28;33.03;;;19.15;;
31818;SDS011;18384;48.860;9.188;2022-08-27T14:34:20;35.05;;;16.17;;
31818;SDS011;18384;48.860;9.188;2022-08-27T14:39:12;35.58;;;19.92;;
31818;SDS011;18384;48.860;9.188;2022-08-27T14:41:39;27.95;;;19.20;;
31818;SDS011;18384;48.860;9.188;2022-08-27T14:46:32;29.25;;;20.83;;
31818;SDS011;18384;48.860;9.188;2022-08-27T14:49:04;29.35;;;18.45;;
31818;SDS011;18384;48.860;9.188;2022-08-27T14:51:37;27.52;;;18.65;;
31818;SDS011;18384;48.860;9.188;2022-08-27T14:54:06;29.15;;;18.67;;
31818;SDS011;18384;48.860;9.188;2022-08-27T14:56:33;24.48;;;17.00;;
31818;SDS011;18384;48.860;9.188;2022-08-27T15:01:25;28.70;;;17.58;;
31818;SDS011;18384;48.860;9.188;2022-08-27T15:03:52;29.45;;;17.48;;
31818;SDS011;18384;48.860;9.188;2022-08-27T15:06:19;26.75;;;17.60;;
31818;SDS011;18384;48.860;9.188;2022-08-27T15:08:47;25.35;;;17.40;;
31818;SDS011;18384;48.860;9.188;2022-08-27T15:11:15;27.75;;;17.15;;
31818;SDS011;18384;48.860;9.188;2022-08-27T15:13:47;29.45;;;17.73;;
31818;SDS011;18384;48.860;9.188;2022-08-27T15:16:15;29.60;;;17.23;;
31818;SDS011;18384;48.860;9.188;2022-08-27T15:19:06;25.77;;;16.40;;
31818;SDS011;18384;48.860;9.188;2022-08-27T15:21:37;30.23;;;16.27;;
31818;SDS011;18384;48.860;9.188;2022-08-27T15:24:06;25.58;;;16.55;;
31818;SDS011;18384;48.860;9.188;2022-08-27T15:26:53;24.77;;;16.02;;
31818;SDS011;18384;48.860;9.188;2022-08-27T15:29:24;28.17;;;17.45;;
31818;SDS011;18384;48.860;9.188;2022-08-27T15:31:51;26.60;;;17.00;;
31818;SDS011;18384;48.860;9.188;2022-08-27T15:34:18;24.95;;;17.15;;
31818;SDS011;18384;48.860;9.188;2022-08-27T15:39:10;33.15;;;18.25;;
31818;SDS011;18384;48.860;9.188;2022-08-27T15:44:04;21.23;;;14.52;;
31818;SDS011;18384;48.860;9.188;2022-08-27T15:46:30;24.95;;;17.37;;
31818;SDS011;18384;48.860;9.188;2022-08-27T15:51:27;32.53;;;16.15;;
31818;SDS011;18384;48.860;9.188;2022-08-27T15:53:57;32.97;;;16.45;;
31818;SDS011;18384;48.860;9.188;2022-08-27T15:56:25;24.27;;;15.73;;
31818;SDS011;18384;48.860;9.188;2022-08-27T15:58:52;25.73;;;17.98;;
31818;SDS011;18384;48.860;9.188;2022-08-27T16:01:29;25.98;;;18.08;;
31818;SDS011;18384;48.860;9.188;2022-08-27T16:03:58;28.00;;;17.08;;
31818;SDS011;18384;48.860;9.188;2022-08-27T16:06:25;31.48;;;17.80;;
31818;SDS011;18384;48.860;9.188;2022-08-27T16:08:52;29.50;;;19.27;;
31818;SDS011;18384;48.860;9.188;2022-08-27T16:11:18;30.15;;;20.25;;
31818;SDS011;18384;48.860;9.188;2022-08-27T16:13:46;33.75;;;23.45;;
31818;SDS011;18384;48.860;9.188;2022-08-27T16:16:12;38.15;;;25.17;;
31818;SDS011;18384;48.860;9.188;2022-08-27T16:21:05;35.70;;;25.62;;
31818;SDS011;18384;48.860;9.188;2022-08-27T16:25:58;37.60;;;25.05;;
31818;SDS011;18384;48.860;9.188;2022-08-27T16:28:25;39.75;;;24.50;;
31818;SDS011;18384;48.860;9.188;2022-08-27T16:30:52;40.75;;;25.62;;
31818;SDS011;18384;48.860;9.188;2022-08-27T16:33:20;37.42;;;25.60;;
31818;SDS011;18384;48.860;9.188;2022-08-27T16:35:47;39.05;;;26.08;;
31818;SDS011;18384;48.860;9.188;2022-08-27T16:38:14;32.38;;;23.30;;
31818;SDS011;18384;48.860;9.188;2022-08-27T16:40:46;37.97;;;23.55;;
31818;SDS011;18384;48.860;9.188;2022-08-27T16:43:25;39.45;;;22.33;;
31818;SDS011;18384;48.860;9.188;2022-08-27T16:45:54;41.03;;;21.75;;
31818;SDS011;18384;48.860;9.188;2022-08-27T16:48:23;33.72;;;22.10;;
31818;SDS011;18384;48.860;9.188;2022-08-27T16:51:15;33.60;;;21.75;;
31818;SDS011;18384;48.860;9.188;2022-08-27T16:53:47;36.05;;;22.70;;
31818;SDS011;18384;48.860;9.188;2022-08-27T16:56:15;32.35;;;22.73;;
31818;SDS011;18384;48.860;9.188;2022-08-27T16:58:44;34.53;;;22.37;;
31818;SDS011;18384;48.860;9.188;2022-08-27T17:01:12;35.10;;;22.52;;
31818;SDS011;18384;48.860;9.188;2022-08-27T17:03:42;32.28;;;21.70;;